Thunder radar more information blitzortung!


Rain radar more information rain snow radar


altri nostri siti meteo:

PomeziameteoStazione ufficiale di Pomezia

MeteopomeziaSito sulle condizioni meteo



Nessuna attenzione particolare richiesta.    Non ci sono allerte meteo

Report METAR

   
LIMP - Parma
Dati ricevuti: 20-01-2020 22:50
Sereno  
Sereno  
   Vento: West 3.7 km/h
Vento: West 3.7 km/h
Temperatura: 1°C
P.to Rugiada: 1°C
Umidita: 100%
Barometro: 1045 hPa
Visibilita: oltre 10 km
dettagli cloud: Sereno
LIMP 202150Z 26002KT CAVOK 01/01 Q1045
LIPE - Bologna
Dati ricevuti: 20-01-2020 23:50
Sereno  
Sereno  
   Vento: West 9.3 km/h
Vento: West 9.3 km/h
Temperatura: 1°C
Temperatura Vento: -2°C
P.to Rugiada: 0°C
Umidita: 93%
Barometro: 1044 hPa
Visibilita: oltre 10 km
dettagli cloud: Sereno
LIPE 202250Z 27005KT CAVOK 01/M00 Q1044
LIPO - Brescia/Montichi
Dati ricevuti: 20-01-2020 22:50
Sereno  
Sereno  
   Vento: SE 7.4 km/h
Vento: SE 7.4 km/h
Temperatura: 3°C
Temperatura Vento: 1°C
P.to Rugiada: -4°C
Umidita: 60%
Barometro: 1044 hPa
Visibilita: oltre 10 km
dettagli cloud: Sereno
LIPO 202150Z 13004KT CAVOK 03/M04 Q1044
LIPF - Ferrara
Dati ricevuti: 20-01-2020 18:55
DATI Obsoleti
Sereno  
Sereno  
   Vento: NE 7.4 km/h
Vento: NE 7.4 km/h
Temperatura: 5°C
Temperatura Vento: 3°C
P.to Rugiada: 0°C
Umidita: 70%
Barometro: 1042 hPa
Visibilita: oltre 10 km
dettagli cloud: Sereno
LIPF 201755Z 03004KT CAVOK 05/M00 Q1042
LIPL - Ghedi
Dati ricevuti: 20-01-2020 22:55
Sereno  
Sereno  
   Vento: SE 1.9 km/h
Vento: SE 1.9 km/h
Temperatura: 0°C
P.to Rugiada: -2°C
Umidita: 87%
Barometro: 1044 hPa
Visibilita: oltre 10 km
dettagli cloud: Sereno
LIPL 202155Z 12001KT CAVOK 00/M02 Q1044
LIVC - Monte Cimone
Dati ricevuti: 19-11-2019 13:55
DATI Obsoleti
Neve leggera, Nebbia  
Neve leggera, Nebbia  
   Vento: S 29.6 km/h<br />Gust to 29.6 km/h
Vento: S 29.6 km/h
Gust to 29.6 km/h
Temperatura: 0°C
Temperatura Vento: -7°C
P.to Rugiada: 0°C
Umidita: 100%
Barometro: 1012 hPa
Visibilita: 0 km
dettagli cloud: Coperto
LIVC 191255Z 21016G28KT 0000 -SN FG VV/// 00/M00 Q1012 RMK MON INVIS VAL INVIS VIS MIN 0000
LIMS - Piacenza
Dati ricevuti: 20-01-2020 18:55
DATI Obsoleti
Sereno  
Sereno  
   Vento: S 5.6 km/h
Vento: S 5.6 km/h
Temperatura: 3°C
Temperatura Vento: 2°C
P.to Rugiada: 3°C
Umidita: 100%
Barometro: 1041 hPa
Visibilita: oltre 10 km
dettagli cloud: Sereno
LIMS 201755Z 21003KT CAVOK 03/03 Q1041
LIMT - Passo della Cisa
Dati ricevuti: 23-09-2019 13:55
DATI Obsoleti
Nebbia  
Nebbia  
   Vento: calma
Vento: calma
Temperatura: 10°C
P.to Rugiada: 10°C
Umidita: 100%
Barometro: 1014 hPa
Visibilita: 0 km
dettagli cloud: Coperto
LIMT 231155Z 00000KT 0000 FG VV/// 10/10 Q1014 RMK MON INVIS VAL INVIS VIS MIN 0000
LIPU - Padova
Dati ricevuti: 19-01-2020 08:00
DATI Obsoleti
Poche nuvole  
Poche nuvole  
   Vento: Nord 9.3 km/h
Vento: Nord 9.3 km/h
Temperatura: 6°C
Temperatura Vento: 4°C
P.to Rugiada: 5°C
Umidita: 93%
Barometro: 1027 hPa
Nuvole: Poche nuvole
Visibilita: 9 km
dettagli cloud: Poche nuvole 1500 ft
LIPU 190700Z 01005KT 9000 FEW015 06/05 Q1027

Script sviluppato da  Saratoga-weather.org Adattato per il modello da  Weerstation Leuven

Strumentazione usata:

Stazione meteo
Davis VP2

Programma gestore dati meteo
WVIEW

Server per i dati meteo
Pc-WDS5

Davis VP2

WVIEW

Pc-WDS5